createdAt,value
2022-12-22T00:00:23.292Z,3.40
2022-12-22T00:03:32.871Z,3.10
2022-12-22T00:06:18.568Z,3.80
2022-12-22T00:09:05.960Z,4.20
2022-12-22T00:11:51.712Z,3.40
2022-12-22T00:14:37.116Z,3.10
2022-12-22T00:17:42.745Z,3.90
2022-12-22T00:20:34.096Z,3.90
2022-12-22T00:23:19.918Z,3.20
2022-12-22T00:26:05.888Z,4.00
2022-12-22T00:28:53.058Z,2.90
2022-12-22T00:31:39.212Z,3.50
2022-12-22T00:34:34.839Z,3.00
2022-12-22T00:37:20.158Z,3.20
2022-12-22T00:40:05.657Z,2.70
2022-12-22T00:42:51.208Z,2.80
2022-12-22T00:45:36.629Z,3.30
2022-12-22T00:48:22.967Z,3.00
2022-12-22T00:51:07.816Z,3.10
2022-12-22T00:53:53.177Z,2.40
2022-12-22T00:56:38.002Z,2.90
2022-12-22T00:59:22.984Z,2.90
2022-12-22T01:02:08.474Z,2.70
2022-12-22T01:04:53.932Z,3.50
2022-12-22T01:07:40.288Z,3.20
2022-12-22T01:10:31.025Z,3.60
2022-12-22T01:13:16.041Z,2.60
2022-12-22T01:18:46.439Z,3.00
2022-12-22T01:21:31.919Z,3.30
2022-12-22T01:24:17.000Z,4.20
2022-12-22T01:27:02.542Z,3.60
2022-12-22T01:29:47.518Z,3.40
2022-12-22T01:32:33.509Z,3.10
2022-12-22T01:35:18.278Z,3.40
2022-12-22T01:38:03.887Z,3.10
2022-12-22T01:40:49.288Z,2.80
2022-12-22T01:43:43.770Z,3.90
2022-12-22T01:46:41.457Z,2.90
2022-12-22T01:49:37.901Z,3.30
2022-12-22T01:52:24.750Z,2.90
2022-12-22T01:55:10.694Z,3.20
2022-12-22T01:57:55.662Z,2.80
2022-12-22T02:00:41.315Z,2.90
2022-12-22T02:03:38.067Z,3.60
2022-12-22T02:06:46.762Z,3.90
2022-12-22T02:09:41.932Z,4.00
2022-12-22T02:12:37.472Z,4.00
2022-12-22T02:15:37.942Z,3.80
2022-12-22T02:18:34.647Z,4.20
2022-12-22T02:21:23.537Z,4.90
2022-12-22T02:24:14.400Z,5.60
2022-12-22T02:27:06.431Z,5.40
2022-12-22T02:30:01.035Z,5.20
2022-12-22T02:32:46.344Z,5.40
2022-12-22T02:38:25.694Z,6.60
2022-12-22T02:41:30.211Z,6.90
2022-12-22T02:44:25.639Z,6.90
2022-12-22T02:47:10.822Z,6.70
2022-12-22T02:50:25.435Z,5.50
2022-12-22T02:53:10.930Z,5.80
2022-12-22T02:55:56.394Z,5.60
2022-12-22T02:58:42.366Z,6.60
2022-12-22T03:01:27.501Z,6.90
2022-12-22T03:04:12.786Z,5.90
2022-12-22T03:06:57.999Z,5.00
2022-12-22T03:09:42.973Z,4.90
2022-12-22T03:15:13.259Z,5.50
2022-12-22T03:17:58.721Z,7.50
2022-12-22T03:20:44.157Z,6.30
2022-12-22T03:23:29.708Z,5.90
2022-12-22T03:25:56.287Z,5.50
2022-12-22T03:28:27.263Z,5.10
2022-12-22T03:31:03.399Z,5.50
2022-12-22T03:33:30.304Z,5.40
2022-12-22T03:35:57.789Z,6.40
2022-12-22T03:38:24.826Z,5.40
2022-12-22T03:40:51.804Z,5.60
2022-12-22T03:43:37.336Z,5.10
2022-12-22T03:46:29.241Z,5.00
2022-12-22T03:49:10.026Z,4.40
2022-12-22T03:51:45.405Z,5.70
2022-12-22T03:54:14.410Z,5.60
2022-12-22T03:56:41.332Z,4.40
2022-12-22T03:59:08.085Z,4.10
2022-12-22T04:01:39.243Z,4.30
2022-12-22T04:04:06.334Z,3.60
2022-12-22T04:06:32.864Z,3.60
2022-12-22T04:08:59.367Z,3.50
2022-12-22T04:11:44.597Z,4.40
2022-12-22T04:14:11.206Z,3.80
2022-12-22T04:16:38.000Z,4.50
2022-12-22T04:19:08.241Z,4.00
2022-12-22T04:21:35.268Z,3.90
2022-12-22T04:24:04.665Z,3.80
2022-12-22T04:26:31.187Z,3.60
2022-12-22T04:28:57.686Z,4.80
2022-12-22T04:31:24.599Z,4.30
2022-12-22T04:33:51.363Z,3.80
2022-12-22T04:36:18.351Z,3.20
2022-12-22T04:38:48.074Z,3.70
2022-12-22T04:41:14.515Z,3.90
2022-12-22T04:43:41.075Z,4.20
2022-12-22T04:46:07.838Z,4.60
2022-12-22T04:48:34.779Z,4.30
2022-12-22T04:53:30.061Z,3.60
2022-12-22T04:56:03.681Z,3.80
2022-12-22T04:58:31.076Z,3.60
2022-12-22T05:01:07.725Z,3.70
2022-12-22T05:03:36.037Z,4.70
2022-12-22T05:06:04.422Z,4.50
2022-12-22T05:08:30.939Z,4.70
2022-12-22T05:10:57.674Z,3.90
2022-12-22T05:13:24.041Z,3.60
2022-12-22T05:15:50.471Z,3.70
2022-12-22T05:18:17.282Z,3.80
2022-12-22T05:20:44.040Z,4.40
2022-12-22T05:23:10.723Z,5.00
2022-12-22T05:28:03.961Z,4.40
2022-12-22T05:30:30.403Z,3.80
2022-12-22T05:32:56.999Z,4.00
2022-12-22T05:35:23.523Z,4.30
2022-12-22T05:37:50.394Z,5.70
2022-12-22T05:40:17.502Z,4.70
2022-12-22T05:42:43.890Z,4.50
2022-12-22T05:45:18.442Z,5.00
2022-12-22T05:47:47.432Z,4.90
2022-12-22T05:50:16.526Z,4.60
2022-12-22T05:52:43.615Z,5.50
2022-12-22T05:55:10.898Z,6.40
2022-12-22T05:57:37.307Z,6.10
2022-12-22T06:00:06.146Z,4.90
2022-12-22T06:02:33.146Z,5.90
2022-12-22T06:04:59.844Z,4.70
2022-12-22T06:07:26.416Z,5.00
2022-12-22T06:09:53.623Z,4.70
2022-12-22T06:12:20.057Z,6.80
2022-12-22T06:14:46.453Z,7.50
2022-12-22T06:17:12.944Z,4.90
2022-12-22T06:19:39.364Z,4.90
2022-12-22T06:22:06.187Z,5.60
2022-12-22T06:26:59.347Z,5.10
2022-12-22T06:29:25.847Z,7.60
2022-12-22T06:31:52.448Z,6.10
2022-12-22T06:34:18.937Z,5.10
2022-12-22T06:36:46.000Z,5.80
2022-12-22T06:39:14.350Z,5.00
2022-12-22T06:42:00.177Z,4.80
2022-12-22T06:44:26.832Z,7.10
2022-12-22T06:46:53.403Z,6.60
2022-12-22T06:49:21.097Z,5.60
2022-12-22T06:51:47.790Z,5.10
2022-12-22T06:54:14.356Z,5.80
2022-12-22T06:56:40.778Z,5.70
2022-12-22T06:59:08.156Z,6.00
2022-12-22T07:01:34.709Z,6.30
2022-12-22T07:04:01.410Z,6.10
2022-12-22T07:06:28.228Z,6.30
2022-12-22T07:08:54.687Z,5.50
2022-12-22T07:11:21.863Z,5.60
2022-12-22T07:13:48.518Z,6.10
2022-12-22T07:16:15.022Z,5.90
2022-12-22T07:18:42.826Z,5.90
2022-12-22T07:21:13.953Z,6.20
2022-12-22T07:23:40.825Z,5.10
2022-12-22T07:26:10.482Z,5.30
2022-12-22T07:28:38.393Z,6.20
2022-12-22T07:31:05.367Z,6.40
2022-12-22T07:33:32.161Z,6.20
2022-12-22T07:36:03.413Z,7.00
2022-12-22T07:38:32.316Z,7.40
2022-12-22T07:41:04.492Z,5.80
2022-12-22T07:43:31.954Z,6.80
2022-12-22T07:45:58.396Z,6.10
2022-12-22T07:48:43.513Z,5.50
2022-12-22T07:51:10.058Z,7.10
2022-12-22T07:53:39.544Z,6.70
2022-12-22T07:56:06.531Z,6.10
2022-12-22T07:58:33.533Z,5.80
2022-12-22T08:01:00.589Z,6.50
2022-12-22T08:03:27.435Z,5.30
2022-12-22T08:05:54.855Z,6.30
2022-12-22T08:08:21.378Z,7.30
2022-12-22T08:10:48.097Z,7.70
2022-12-22T08:13:15.192Z,6.90
2022-12-22T08:18:08.010Z,6.10
2022-12-22T08:20:35.264Z,5.50
2022-12-22T08:23:01.917Z,5.80
2022-12-22T08:25:30.368Z,8.30
2022-12-22T08:27:57.402Z,7.10
2022-12-22T08:32:50.856Z,5.20
2022-12-22T08:35:18.441Z,5.60
2022-12-22T08:37:46.086Z,4.90
2022-12-22T08:40:25.115Z,5.40
2022-12-22T08:42:56.064Z,6.00
2022-12-22T08:45:22.520Z,5.20
2022-12-22T08:47:49.185Z,5.50
2022-12-22T08:50:16.329Z,4.70
2022-12-22T08:55:09.767Z,4.60
2022-12-22T08:57:37.018Z,4.50
2022-12-22T09:00:06.121Z,5.10
2022-12-22T09:02:32.764Z,5.20
2022-12-22T09:04:59.552Z,4.70
2022-12-22T09:07:26.051Z,4.10
2022-12-22T09:09:53.217Z,4.30
2022-12-22T09:12:19.823Z,4.50
2022-12-22T09:14:46.259Z,4.90
2022-12-22T09:17:12.680Z,4.40
2022-12-22T09:19:39.464Z,5.20
2022-12-22T09:22:06.465Z,5.10
2022-12-22T09:24:32.840Z,5.00
2022-12-22T09:26:59.667Z,4.60
2022-12-22T09:29:26.134Z,4.70
2022-12-22T09:31:52.779Z,4.60
2022-12-22T09:34:19.379Z,4.20
2022-12-22T09:36:46.379Z,5.30
2022-12-22T09:39:13.607Z,4.60
2022-12-22T09:41:43.319Z,4.70
2022-12-22T09:44:22.559Z,5.00
2022-12-22T09:46:50.804Z,5.40
2022-12-22T09:49:18.150Z,5.20
2022-12-22T09:51:47.852Z,4.50
2022-12-22T09:54:15.628Z,5.10
2022-12-22T09:56:42.107Z,5.20
2022-12-22T09:59:14.491Z,4.60
2022-12-22T10:02:08.955Z,4.30
2022-12-22T10:04:35.678Z,4.40
2022-12-22T10:09:49.812Z,4.30
2022-12-22T10:12:23.655Z,5.40
2022-12-22T10:14:51.424Z,4.90
2022-12-22T10:17:20.520Z,4.70
2022-12-22T10:19:48.373Z,4.70
2022-12-22T10:22:29.329Z,3.90
2022-12-22T10:24:57.473Z,4.30
2022-12-22T10:27:29.261Z,4.50
2022-12-22T10:30:17.519Z,4.90
2022-12-22T10:33:19.971Z,4.40
2022-12-22T10:35:50.893Z,4.00
2022-12-22T10:38:29.604Z,3.80
2022-12-22T10:41:02.966Z,4.30
2022-12-22T10:43:36.776Z,4.00
2022-12-22T10:46:03.860Z,4.30
2022-12-22T10:48:33.725Z,5.20
2022-12-22T10:51:01.133Z,5.00
2022-12-22T10:53:40.044Z,4.40
2022-12-22T10:56:08.345Z,4.80
2022-12-22T10:58:48.447Z,4.70
2022-12-22T11:01:23.085Z,5.10
2022-12-22T11:03:49.795Z,4.90
2022-12-22T11:06:16.407Z,5.30
2022-12-22T11:08:50.829Z,4.90
2022-12-22T11:11:34.259Z,5.30
2022-12-22T11:14:22.597Z,5.30
2022-12-22T11:16:58.814Z,4.50
2022-12-22T11:19:53.123Z,5.30
2022-12-22T11:22:41.117Z,4.80
2022-12-22T11:25:29.131Z,5.30
2022-12-22T11:28:20.566Z,5.10
2022-12-22T11:31:11.887Z,4.60
2022-12-22T11:33:44.282Z,5.20
2022-12-22T11:36:32.546Z,5.00
2022-12-22T11:39:14.489Z,5.20
2022-12-22T11:42:15.812Z,5.30
2022-12-22T11:44:54.751Z,5.30
2022-12-22T11:47:26.107Z,5.80
2022-12-22T11:51:01.704Z,5.10
2022-12-22T11:53:32.921Z,4.80
2022-12-22T11:56:21.694Z,4.70
2022-12-22T11:59:10.204Z,4.70
2022-12-22T12:01:48.026Z,4.90
2022-12-22T12:04:26.737Z,4.50
2022-12-22T12:07:25.186Z,4.70
2022-12-22T12:10:26.267Z,4.40
2022-12-22T12:13:25.753Z,3.90
2022-12-22T12:16:19.092Z,3.50
2022-12-22T12:19:26.306Z,5.70
2022-12-22T12:21:58.262Z,5.20
2022-12-22T12:24:49.568Z,3.90
2022-12-22T12:27:34.735Z,3.80
2022-12-22T12:30:36.835Z,4.20
2022-12-22T12:32:54.433Z,4.20
2022-12-22T12:35:29.092Z,4.10
2022-12-22T12:38:25.782Z,4.50
2022-12-22T12:41:07.115Z,3.90
2022-12-22T12:43:33.921Z,3.30
2022-12-22T12:46:00.669Z,4.20
2022-12-22T12:48:28.110Z,3.30
2022-12-22T12:50:56.536Z,3.70
2022-12-22T12:53:24.270Z,4.00
2022-12-22T12:55:52.279Z,3.90
2022-12-22T12:58:37.070Z,4.60
2022-12-22T13:01:33.202Z,4.30
2022-12-22T13:04:03.652Z,4.70
2022-12-22T13:06:49.768Z,5.10
2022-12-22T13:09:49.274Z,5.20
2022-12-22T13:12:34.673Z,4.40
2022-12-22T13:15:01.119Z,4.00
2022-12-22T13:20:10.612Z,3.30
2022-12-22T13:22:37.506Z,2.80
2022-12-22T13:25:04.477Z,3.20
2022-12-22T13:27:31.003Z,2.80
2022-12-22T13:29:59.094Z,2.70
2022-12-22T13:32:29.915Z,3.00
2022-12-22T13:37:58.728Z,2.60
2022-12-22T13:40:30.712Z,2.40
2022-12-22T13:43:01.544Z,2.90
2022-12-22T13:45:32.777Z,3.00
2022-12-22T13:48:00.486Z,3.20
2022-12-22T13:50:37.082Z,3.80
2022-12-22T13:53:07.170Z,3.50
2022-12-22T13:55:34.799Z,3.30
2022-12-22T13:58:20.910Z,3.40
2022-12-22T14:01:00.581Z,3.50
2022-12-22T14:03:58.230Z,3.30
2022-12-22T14:06:33.053Z,2.90
2022-12-22T14:09:21.146Z,3.30
2022-12-22T14:12:10.481Z,3.30
2022-12-22T14:14:42.343Z,7.40
2022-12-22T14:17:19.111Z,3.20
2022-12-22T14:19:52.724Z,3.30
2022-12-22T14:22:23.536Z,3.60
2022-12-22T14:24:54.966Z,3.00
2022-12-22T14:27:43.709Z,3.20
2022-12-22T14:30:17.862Z,2.90
2022-12-22T14:32:54.745Z,3.00
2022-12-22T14:35:22.609Z,3.10
2022-12-22T14:37:53.642Z,3.20
2022-12-22T14:40:30.388Z,4.00
2022-12-22T14:42:58.556Z,3.20
2022-12-22T14:45:25.221Z,2.80
2022-12-22T14:47:52.928Z,3.00
2022-12-22T14:50:22.166Z,2.90
2022-12-22T14:52:54.464Z,2.70
2022-12-22T14:55:30.767Z,3.10
2022-12-22T14:58:03.516Z,2.30
2022-12-22T15:01:00.991Z,3.10
2022-12-22T15:03:32.348Z,2.70
2022-12-22T15:06:23.325Z,2.60
2022-12-22T15:08:53.263Z,2.80
2022-12-22T15:11:21.757Z,2.80
2022-12-22T15:13:50.755Z,2.70
2022-12-22T15:16:21.159Z,2.30
2022-12-22T15:18:49.144Z,3.00
2022-12-22T15:21:16.943Z,3.20
2022-12-22T15:23:43.827Z,2.80
2022-12-22T15:26:10.763Z,2.80
2022-12-22T15:31:10.716Z,3.60
2022-12-22T15:33:37.325Z,2.30
2022-12-22T15:36:05.535Z,3.00
2022-12-22T15:38:38.514Z,3.60
2022-12-22T15:41:06.900Z,3.50
2022-12-22T15:43:57.438Z,4.40
2022-12-22T15:46:22.049Z,3.30
2022-12-22T15:48:48.924Z,3.50
2022-12-22T15:51:28.345Z,3.50
2022-12-22T15:53:57.220Z,3.00
2022-12-22T15:56:25.304Z,3.30
2022-12-22T15:58:52.085Z,3.70
2022-12-22T16:01:18.953Z,3.80
2022-12-22T16:03:45.540Z,3.90
2022-12-22T16:06:16.991Z,4.00
2022-12-22T16:08:48.938Z,4.20
2022-12-22T16:11:16.008Z,3.80
2022-12-22T16:13:42.669Z,3.70
2022-12-22T16:16:11.120Z,4.70
2022-12-22T16:18:37.595Z,5.40
2022-12-22T16:21:14.366Z,4.40
2022-12-22T16:23:43.033Z,4.80
2022-12-22T16:26:16.182Z,5.20
2022-12-22T16:28:43.100Z,4.40
2022-12-22T16:31:19.223Z,4.20
2022-12-22T16:33:46.236Z,4.70
2022-12-22T16:36:13.748Z,5.00
2022-12-22T16:38:41.397Z,4.60
2022-12-22T16:41:18.703Z,4.70
2022-12-22T16:46:35.434Z,4.60
2022-12-22T16:49:01.966Z,4.50
2022-12-22T16:51:36.413Z,4.80
2022-12-22T16:54:04.005Z,4.50
2022-12-22T16:56:31.491Z,4.80
2022-12-22T16:58:58.692Z,5.30
2022-12-22T17:01:40.601Z,4.30
2022-12-22T17:04:12.727Z,4.80
2022-12-22T17:06:41.702Z,4.00
2022-12-22T17:09:15.931Z,5.30
2022-12-22T17:11:44.319Z,5.20
2022-12-22T17:14:27.070Z,4.80
2022-12-22T17:16:53.781Z,4.50
2022-12-22T17:19:20.754Z,4.40
2022-12-22T17:21:47.524Z,4.30
2022-12-22T17:24:15.864Z,4.00
2022-12-22T17:26:42.411Z,4.70
2022-12-22T17:29:14.898Z,4.20
2022-12-22T17:31:42.497Z,4.20
2022-12-22T17:34:14.156Z,4.00
2022-12-22T17:36:40.740Z,4.40
2022-12-22T17:39:15.086Z,4.20
2022-12-22T17:41:41.982Z,4.80
2022-12-22T17:44:17.267Z,4.50
2022-12-22T17:46:44.719Z,4.30
2022-12-22T17:49:12.573Z,4.40
2022-12-22T17:51:39.989Z,4.00
2022-12-22T17:54:32.934Z,3.60
2022-12-22T17:57:01.535Z,3.20
2022-12-22T17:59:28.686Z,4.10
2022-12-22T18:04:22.848Z,4.30
2022-12-22T18:06:49.824Z,3.50
2022-12-22T18:09:22.231Z,3.60
2022-12-22T18:11:48.846Z,3.70
2022-12-22T18:16:43.301Z,3.20
2022-12-22T18:19:09.808Z,4.00
2022-12-22T18:21:36.792Z,3.80
2022-12-22T18:24:03.697Z,3.60
2022-12-22T18:26:30.712Z,3.70
2022-12-22T18:28:57.808Z,4.00
2022-12-22T18:31:25.202Z,4.40
2022-12-22T18:33:52.233Z,3.40
2022-12-22T18:36:29.184Z,4.40
2022-12-22T18:38:56.354Z,4.20
2022-12-22T18:41:23.937Z,4.60
2022-12-22T18:43:51.090Z,5.00
2022-12-22T18:46:18.138Z,4.10
2022-12-22T18:48:45.592Z,4.20
2022-12-22T18:51:21.206Z,4.50
2022-12-22T18:53:53.433Z,4.50
2022-12-22T18:56:20.081Z,4.20
2022-12-22T18:58:46.875Z,4.60
2022-12-22T19:01:20.441Z,5.30
2022-12-22T19:03:48.198Z,4.10
2022-12-22T19:06:20.265Z,4.50
2022-12-22T19:08:47.615Z,4.40
2022-12-22T19:11:16.205Z,4.40
2022-12-22T19:13:48.851Z,4.20
2022-12-22T19:16:22.234Z,4.90
2022-12-22T19:18:49.410Z,4.60
2022-12-22T19:21:17.554Z,3.80
2022-12-22T19:23:45.044Z,5.10
2022-12-22T19:26:25.513Z,4.90
2022-12-22T19:28:54.123Z,4.70
2022-12-22T19:31:24.600Z,5.00
2022-12-22T19:33:51.888Z,5.20
2022-12-22T19:36:21.538Z,5.30
2022-12-22T19:38:50.859Z,4.60
2022-12-22T19:41:34.906Z,4.20
2022-12-22T19:44:02.115Z,4.40
2022-12-22T19:46:32.331Z,4.90
2022-12-22T19:48:59.496Z,4.70
2022-12-22T19:51:26.459Z,3.70
2022-12-22T19:53:53.721Z,4.00
2022-12-22T19:56:24.363Z,4.00
2022-12-22T19:58:51.720Z,3.70
2022-12-22T20:01:18.385Z,3.00
2022-12-22T20:03:45.339Z,3.70
2022-12-22T20:06:12.234Z,3.50
2022-12-22T20:08:38.821Z,3.40
2022-12-22T20:11:16.818Z,3.70
2022-12-22T20:13:44.717Z,3.30
2022-12-22T20:16:13.192Z,3.10
2022-12-22T20:18:40.899Z,3.80
2022-12-22T20:21:11.733Z,3.90
2022-12-22T20:23:38.797Z,4.30
2022-12-22T20:26:11.638Z,3.50
2022-12-22T20:28:39.075Z,3.60
2022-12-22T20:31:07.127Z,3.50
2022-12-22T20:33:34.378Z,4.50
2022-12-22T20:36:01.584Z,4.50
2022-12-22T20:38:37.005Z,4.00
2022-12-22T20:41:07.269Z,4.00
2022-12-22T20:43:35.574Z,3.90
2022-12-22T20:46:09.605Z,3.90
2022-12-22T20:48:39.181Z,4.20
2022-12-22T20:51:09.739Z,4.70
2022-12-22T20:53:36.430Z,4.70
2022-12-22T20:56:03.305Z,4.70
2022-12-22T20:58:33.744Z,3.90
2022-12-22T21:01:01.036Z,4.60
2022-12-22T21:03:28.096Z,5.40
2022-12-22T21:05:54.756Z,5.40
2022-12-22T21:08:24.337Z,4.80
2022-12-22T21:10:52.628Z,4.90
2022-12-22T21:13:20.018Z,5.60
2022-12-22T21:15:49.647Z,4.40
2022-12-22T21:18:21.193Z,4.80
2022-12-22T21:20:49.844Z,5.90
2022-12-22T21:23:16.785Z,6.10
2022-12-22T21:25:49.756Z,5.10
2022-12-22T21:28:35.933Z,5.70
2022-12-22T21:31:03.481Z,6.30
2022-12-22T21:33:30.694Z,5.40
2022-12-22T21:35:58.840Z,6.10
2022-12-22T21:38:28.032Z,5.80
2022-12-22T21:40:54.697Z,6.40
2022-12-22T21:43:21.233Z,5.50
2022-12-22T21:45:48.619Z,5.70
2022-12-22T21:48:18.428Z,5.90
2022-12-22T21:50:46.763Z,6.60
2022-12-22T21:53:19.855Z,6.30
2022-12-22T21:55:48.782Z,6.00
2022-12-22T21:58:16.569Z,6.10
2022-12-22T22:00:47.858Z,5.30
2022-12-22T22:03:15.171Z,5.80
2022-12-22T22:05:42.353Z,6.80
2022-12-22T22:08:10.916Z,5.40
2022-12-22T22:10:39.552Z,5.00
2022-12-22T22:13:06.959Z,5.10
2022-12-22T22:15:33.988Z,5.40
2022-12-22T22:18:06.415Z,5.10
2022-12-22T22:20:34.225Z,6.40
2022-12-22T22:23:01.926Z,5.40
2022-12-22T22:25:28.585Z,5.20
2022-12-22T22:27:58.894Z,5.60
2022-12-22T22:30:26.177Z,5.20
2022-12-22T22:32:54.258Z,5.30
2022-12-22T22:35:25.759Z,7.00
2022-12-22T22:37:52.671Z,6.50
2022-12-22T22:40:22.583Z,6.40
2022-12-22T22:42:49.432Z,6.00
2022-12-22T22:45:23.132Z,6.00
2022-12-22T22:47:53.248Z,6.10
2022-12-22T22:50:21.194Z,6.80
2022-12-22T22:52:48.003Z,6.30
2022-12-22T22:55:14.906Z,5.80
2022-12-22T22:57:42.033Z,6.30
2022-12-22T23:00:11.235Z,5.90
2022-12-22T23:02:38.089Z,5.90
2022-12-22T23:05:05.261Z,6.80
2022-12-22T23:07:31.795Z,6.80
2022-12-22T23:09:58.645Z,7.30
2022-12-22T23:12:25.251Z,8.60
2022-12-22T23:14:52.090Z,7.40
2022-12-22T23:17:19.010Z,7.10
2022-12-22T23:19:45.510Z,6.80
2022-12-22T23:22:12.100Z,6.60
2022-12-22T23:27:05.824Z,6.30
2022-12-22T23:31:59.334Z,5.40
2022-12-22T23:34:25.848Z,5.50
2022-12-22T23:36:52.471Z,5.90
2022-12-22T23:39:19.000Z,5.80
2022-12-22T23:41:45.901Z,6.30
2022-12-22T23:44:12.814Z,5.90
2022-12-22T23:49:06.364Z,6.60
2022-12-22T23:51:32.914Z,5.20
2022-12-22T23:54:00.896Z,5.30
2022-12-22T23:56:28.479Z,5.30
2022-12-22T23:58:55.417Z,5.70
